Time,TemperatureF,DewpointF,PressureIn,WindDirection,WindDirectionDegrees,WindSpeedMPH,WindSpeedGustMPH,Humidity,HourlyPrecipIn,Conditions,Clouds,dailyrainin,SolarRadiationWatts/m^2,SoftwareType,DateUTC
2013-05-26 00:01:00,64.0,37.0,-100.00,East,96,7.0,15.0,36,0.00,,,0.00,312.000000,,2013-05-26 00:01:00,
2013-05-26 00:11:00,64.0,37.0,-100.00,East,96,7.0,15.0,36,0.00,,,0.00,312.000000,,2013-05-26 00:11:00,
2013-05-26 01:32:00,59.0,37.0,-100.00,ESE,102,4.0,11.0,43,-99.99,,,0.00,66.000000,,2013-05-26 01:32:00,
2013-05-26 01:42:00,59.0,37.0,-100.00,ESE,102,4.0,11.0,43,-99.99,,,0.00,66.000000,,2013-05-26 01:42:00,
2013-05-26 01:53:00,59.0,37.0,-100.00,ESE,102,4.0,11.0,43,-99.99,,,0.00,66.000000,,2013-05-26 01:53:00,
2013-05-26 02:02:00,59.0,37.0,-100.00,ESE,102,4.0,11.0,43,-99.99,,,0.00,66.000000,,2013-05-26 02:02:00,
2013-05-26 02:11:00,59.0,37.0,-100.00,ESE,102,4.0,11.0,43,-99.99,,,0.00,66.000000,,2013-05-26 02:11:00,
2013-05-26 02:32:00,55.0,35.0,-100.00,East,98,3.0,7.0,47,0.00,,,0.00,2.000000,,2013-05-26 02:32:00,
2013-05-26 02:42:00,55.0,35.0,-100.00,East,98,3.0,7.0,47,0.00,,,0.00,2.000000,,2013-05-26 02:42:00,
2013-05-26 02:52:00,55.0,35.0,-100.00,East,98,3.0,7.0,47,0.00,,,0.00,2.000000,,2013-05-26 02:52:00,
2013-05-26 03:01:00,55.0,35.0,-100.00,East,98,3.0,7.0,47,0.00,,,0.00,2.000000,,2013-05-26 03:01:00,
2013-05-26 03:11:00,55.0,35.0,-100.00,East,98,3.0,7.0,47,0.00,,,0.00,2.000000,,2013-05-26 03:11:00,
2013-05-26 03:12:00,53.0,34.0,-100.00,ESE,116,1.0,7.0,48,0.00,,,0.00,0.000000,,2013-05-26 03:12:00,
2013-05-26 03:33:00,53.0,34.0,-100.00,ESE,116,1.0,7.0,48,0.00,,,0.00,0.000000,,2013-05-26 03:33:00,
2013-05-26 03:43:00,53.0,34.0,-100.00,ESE,116,1.0,7.0,48,0.00,,,0.00,0.000000,,2013-05-26 03:43:00,
2013-05-26 03:53:00,53.0,34.0,-100.00,ESE,116,1.0,7.0,48,0.00,,,0.00,0.000000,,2013-05-26 03:53:00,
2013-05-26 04:02:00,53.0,34.0,-100.00,ESE,116,1.0,7.0,48,0.00,,,0.00,0.000000,,2013-05-26 04:02:00,
2013-05-26 04:12:00,47.0,36.0,-100.00,West,260,0.0,5.0,66,0.00,,,0.00,0.000000,,2013-05-26 04:12:00,
2013-05-26 04:33:00,47.0,36.0,-100.00,West,260,0.0,5.0,66,0.00,,,0.00,0.000000,,2013-05-26 04:33:00,
2013-05-26 04:43:00,47.0,36.0,-100.00,West,260,0.0,5.0,66,0.00,,,0.00,0.000000,,2013-05-26 04:43:00,
2013-05-26 04:52:00,47.0,36.0,-100.00,West,260,0.0,5.0,66,0.00,,,0.00,0.000000,,2013-05-26 04:52:00,
2013-05-26 05:02:00,47.0,36.0,-100.00,West,260,0.0,5.0,66,0.00,,,0.00,0.000000,,2013-05-26 05:02:00,
2013-05-26 05:12:00,43.0,38.0,-100.00,SSW,201,0.0,0.0,83,0.00,,,0.00,0.000000,,2013-05-26 05:12:00,
2013-05-26 05:32:00,43.0,38.0,-100.00,SSW,201,0.0,0.0,83,0.00,,,0.00,0.000000,,2013-05-26 05:32:00,
2013-05-26 05:42:00,43.0,38.0,-100.00,SSW,201,0.0,0.0,83,0.00,,,0.00,0.000000,,2013-05-26 05:42:00,
2013-05-26 05:52:00,43.0,38.0,-100.00,SSW,201,0.0,0.0,83,0.00,,,0.00,0.000000,,2013-05-26 05:52:00,
2013-05-26 06:01:00,43.0,38.0,-100.00,SSW,201,0.0,0.0,83,0.00,,,0.00,0.000000,,2013-05-26 06:01:00,
2013-05-26 06:32:00,40.0,37.0,-100.00,NE,50,0.0,2.0,90,0.00,,,0.00,0.000000,,2013-05-26 06:32:00,
2013-05-26 06:42:00,40.0,37.0,-100.00,NE,50,0.0,2.0,90,0.00,,,0.00,0.000000,,2013-05-26 06:42:00,
2013-05-26 06:52:00,40.0,37.0,-100.00,NE,50,0.0,2.0,90,0.00,,,0.00,0.000000,,2013-05-26 06:52:00,
2013-05-26 07:01:00,40.0,37.0,-100.00,NE,50,0.0,2.0,90,0.00,,,0.00,0.000000,,2013-05-26 07:01:00,
2013-05-26 07:11:00,40.0,37.0,-100.00,NE,50,0.0,2.0,90,0.00,,,0.00,0.000000,,2013-05-26 07:11:00,
2013-05-26 07:12:00,38.0,36.0,-100.00,North,10,0.0,0.0,92,0.00,,,0.00,0.000000,,2013-05-26 07:12:00,
2013-05-26 07:32:00,38.0,36.0,-100.00,North,10,0.0,0.0,92,0.00,,,0.00,0.000000,,2013-05-26 07:32:00,
2013-05-26 07:42:00,38.0,36.0,-100.00,North,10,0.0,0.0,92,0.00,,,0.00,0.000000,,2013-05-26 07:42:00,
2013-05-26 07:52:00,38.0,36.0,-100.00,North,10,0.0,0.0,92,0.00,,,0.00,0.000000,,2013-05-26 07:52:00,
2013-05-26 08:01:00,38.0,36.0,-100.00,North,10,0.0,0.0,92,0.00,,,0.00,0.000000,,2013-05-26 08:01:00,
2013-05-26 08:32:00,37.0,35.0,-100.00,NNW,335,0.0,0.0,93,0.00,,,0.00,0.000000,,2013-05-26 08:32:00,
2013-05-26 08:42:00,37.0,35.0,-100.00,NNW,335,0.0,0.0,93,0.00,,,0.00,0.000000,,2013-05-26 08:42:00,
2013-05-26 08:53:00,37.0,35.0,-100.00,NNW,335,0.0,0.0,93,0.00,,,0.00,0.000000,,2013-05-26 08:53:00,
2013-05-26 09:01:00,37.0,35.0,-100.00,NNW,335,0.0,0.0,93,0.00,,,0.00,0.000000,,2013-05-26 09:01:00,
2013-05-26 09:11:00,37.0,35.0,-100.00,NNW,335,0.0,0.0,93,0.00,,,0.00,0.000000,,2013-05-26 09:11:00,
2013-05-26 09:12:00,36.0,34.0,-100.00,NNW,336,0.0,3.0,93,0.00,,,0.00,0.000000,,2013-05-26 09:12:00,
2013-05-26 09:34:00,36.0,34.0,-100.00,NNW,336,0.0,3.0,93,0.00,,,0.00,0.000000,,2013-05-26 09:34:00,
2013-05-26 09:43:00,36.0,34.0,-100.00,NNW,336,0.0,3.0,93,0.00,,,0.00,0.000000,,2013-05-26 09:43:00,
2013-05-26 09:53:00,36.0,34.0,-100.00,NNW,336,0.0,3.0,93,0.00,,,0.00,0.000000,,2013-05-26 09:53:00,
2013-05-26 10:02:00,36.0,34.0,-100.00,NNW,336,0.0,3.0,93,0.00,,,0.00,0.000000,,2013-05-26 10:02:00,
2013-05-26 10:33:00,36.0,34.0,-100.00,ESE,108,0.0,0.0,93,0.00,,,0.00,1.000000,,2013-05-26 10:33:00,
2013-05-26 10:42:00,36.0,34.0,-100.00,ESE,108,0.0,0.0,93,0.00,,,0.00,1.000000,,2013-05-26 10:42:00,
2013-05-26 10:52:00,36.0,34.0,-100.00,ESE,108,0.0,0.0,93,0.00,,,0.00,1.000000,,2013-05-26 10:52:00,
2013-05-26 11:03:00,36.0,34.0,-100.00,ESE,108,0.0,0.0,93,0.00,,,0.00,1.000000,,2013-05-26 11:03:00,
2013-05-26 11:11:00,36.0,34.0,-100.00,ESE,108,0.0,0.0,93,0.00,,,0.00,1.000000,,2013-05-26 11:11:00,
2013-05-26 11:12:00,37.0,35.0,-100.00,NE,34,2.0,4.0,94,0.00,,,0.00,23.000000,,2013-05-26 11:12:00,
2013-05-26 11:32:00,37.0,35.0,-100.00,NE,34,2.0,4.0,94,0.00,,,0.00,23.000000,,2013-05-26 11:32:00,
2013-05-26 11:42:00,37.0,35.0,-100.00,NE,34,2.0,4.0,94,0.00,,,0.00,23.000000,,2013-05-26 11:42:00,
2013-05-26 11:52:00,37.0,35.0,-100.00,NE,34,2.0,4.0,94,0.00,,,0.00,23.000000,,2013-05-26 11:52:00,
2013-05-26 12:02:00,37.0,35.0,-100.00,NE,34,2.0,4.0,94,0.00,,,0.00,23.000000,,2013-05-26 12:02:00,
2013-05-26 12:32:00,45.0,41.0,-100.00,NE,52,3.0,5.0,87,0.00,,,0.00,110.000000,,2013-05-26 12:32:00,
2013-05-26 12:42:00,45.0,41.0,-100.00,NE,52,3.0,5.0,87,0.00,,,0.00,110.000000,,2013-05-26 12:42:00,
2013-05-26 12:52:00,45.0,41.0,-100.00,NE,52,3.0,5.0,87,0.00,,,0.00,110.000000,,2013-05-26 12:52:00,
2013-05-26 13:02:00,45.0,41.0,-100.00,NE,52,3.0,5.0,87,0.00,,,0.00,110.000000,,2013-05-26 13:02:00,
2013-05-26 13:11:00,45.0,41.0,-100.00,NE,52,3.0,5.0,87,0.00,,,0.00,110.000000,,2013-05-26 13:11:00,
2013-05-26 13:32:00,52.0,40.0,-100.00,NE,53,3.0,9.0,64,0.00,,,0.00,262.000000,,2013-05-26 13:32:00,
2013-05-26 13:42:00,52.0,40.0,-100.00,NE,53,3.0,9.0,64,0.00,,,0.00,262.000000,,2013-05-26 13:42:00,
2013-05-26 13:52:00,52.0,40.0,-100.00,NE,53,3.0,9.0,64,0.00,,,0.00,262.000000,,2013-05-26 13:52:00,
2013-05-26 14:02:00,52.0,40.0,-100.00,NE,53,3.0,9.0,64,0.00,,,0.00,262.000000,,2013-05-26 14:02:00,
2013-05-26 14:11:00,52.0,40.0,-100.00,NE,53,3.0,9.0,64,0.00,,,0.00,262.000000,,2013-05-26 14:11:00,
2013-05-26 14:12:00,54.0,40.0,-100.00,East,89,5.0,11.0,58,0.00,,,0.00,346.000000,,2013-05-26 14:12:00,
2013-05-26 14:32:00,54.0,40.0,-100.00,East,89,5.0,11.0,58,0.00,,,0.00,346.000000,,2013-05-26 14:32:00,
2013-05-26 14:42:00,54.0,40.0,-100.00,East,89,5.0,11.0,58,0.00,,,0.00,346.000000,,2013-05-26 14:42:00,
2013-05-26 14:52:00,54.0,40.0,-100.00,East,89,5.0,11.0,58,0.00,,,0.00,346.000000,,2013-05-26 14:52:00,
2013-05-26 15:01:00,54.0,40.0,-100.00,East,89,5.0,11.0,58,0.00,,,0.00,346.000000,,2013-05-26 15:01:00,
2013-05-26 15:12:00,59.0,42.0,-100.00,East,86,6.0,11.0,54,0.00,,,0.00,577.000000,,2013-05-26 15:12:00,
2013-05-26 15:33:00,59.0,42.0,-100.00,East,86,6.0,11.0,54,0.00,,,0.00,577.000000,,2013-05-26 15:33:00,
2013-05-26 15:43:00,59.0,42.0,-100.00,East,86,6.0,11.0,54,0.00,,,0.00,577.000000,,2013-05-26 15:43:00,
2013-05-26 15:53:00,59.0,42.0,-100.00,East,86,6.0,11.0,54,0.00,,,0.00,577.000000,,2013-05-26 15:53:00,
2013-05-26 16:03:00,59.0,42.0,-100.00,East,86,6.0,11.0,54,0.00,,,0.00,577.000000,,2013-05-26 16:03:00,
2013-05-26 16:33:00,62.0,40.0,-100.00,East,89,7.0,12.0,44,0.00,,,0.00,704.000000,,2013-05-26 16:33:00,
2013-05-26 16:42:00,62.0,40.0,-100.00,East,89,7.0,12.0,44,0.00,,,0.00,704.000000,,2013-05-26 16:42:00,
2013-05-26 16:53:00,62.0,40.0,-100.00,East,89,7.0,12.0,44,0.00,,,0.00,704.000000,,2013-05-26 16:53:00,
2013-05-26 17:02:00,62.0,40.0,-100.00,East,89,7.0,12.0,44,0.00,,,0.00,704.000000,,2013-05-26 17:02:00,
2013-05-26 17:11:00,62.0,40.0,-100.00,East,89,7.0,12.0,44,0.00,,,0.00,704.000000,,2013-05-26 17:11:00,
2013-05-26 17:12:00,65.0,39.0,-100.00,ESE,111,7.0,18.0,38,0.00,,,0.00,892.000000,,2013-05-26 17:12:00,
2013-05-26 17:32:00,65.0,39.0,-100.00,ESE,111,7.0,18.0,38,0.00,,,0.00,892.000000,,2013-05-26 17:32:00,
2013-05-26 17:42:00,65.0,39.0,-100.00,ESE,111,7.0,18.0,38,0.00,,,0.00,892.000000,,2013-05-26 17:42:00,
2013-05-26 17:52:00,65.0,39.0,-100.00,ESE,111,7.0,18.0,38,0.00,,,0.00,892.000000,,2013-05-26 17:52:00,
2013-05-26 18:01:00,65.0,39.0,-100.00,ESE,111,7.0,18.0,38,0.00,,,0.00,892.000000,,2013-05-26 18:01:00,
2013-05-26 18:32:00,66.0,39.0,-100.00,ESE,118,8.0,15.0,37,0.00,,,0.00,704.000000,,2013-05-26 18:32:00,
2013-05-26 18:42:00,66.0,39.0,-100.00,ESE,118,8.0,15.0,37,0.00,,,0.00,704.000000,,2013-05-26 18:42:00,
2013-05-26 18:52:00,66.0,39.0,-100.00,ESE,118,8.0,15.0,37,0.00,,,0.00,704.000000,,2013-05-26 18:52:00,
2013-05-26 19:01:00,66.0,39.0,-100.00,ESE,118,8.0,15.0,37,0.00,,,0.00,704.000000,,2013-05-26 19:01:00,
2013-05-26 19:11:00,66.0,39.0,-100.00,ESE,118,8.0,15.0,37,0.00,,,0.00,704.000000,,2013-05-26 19:11:00,
2013-05-26 19:32:00,66.0,38.0,-100.00,ESE,115,8.0,14.0,35,0.00,,,0.00,583.000000,,2013-05-26 19:32:00,
2013-05-26 19:42:00,66.0,38.0,-100.00,ESE,115,8.0,14.0,35,0.00,,,0.00,583.000000,,2013-05-26 19:42:00,
2013-05-26 19:52:00,66.0,38.0,-100.00,ESE,115,8.0,14.0,35,0.00,,,0.00,583.000000,,2013-05-26 19:52:00,
2013-05-26 20:02:00,66.0,38.0,-100.00,ESE,115,8.0,14.0,35,0.00,,,0.00,583.000000,,2013-05-26 20:02:00,
2013-05-26 20:11:00,66.0,38.0,-100.00,ESE,115,8.0,14.0,35,0.00,,,0.00,583.000000,,2013-05-26 20:11:00,
2013-05-26 20:32:00,65.0,38.0,-100.00,ESE,102,5.0,16.0,37,0.00,,,0.00,357.000000,,2013-05-26 20:32:00,
2013-05-26 20:42:00,65.0,38.0,-100.00,ESE,102,5.0,16.0,37,0.00,,,0.00,357.000000,,2013-05-26 20:42:00,
2013-05-26 20:52:00,65.0,38.0,-100.00,ESE,102,5.0,16.0,37,0.00,,,0.00,357.000000,,2013-05-26 20:52:00,
2013-05-26 21:02:00,65.0,38.0,-100.00,ESE,102,5.0,16.0,37,0.00,,,0.00,357.000000,,2013-05-26 21:02:00,
2013-05-26 21:11:00,65.0,38.0,-100.00,ESE,102,5.0,16.0,37,0.00,,,0.00,357.000000,,2013-05-26 21:11:00,
2013-05-26 21:12:00,65.0,37.0,-100.00,ESE,120,7.0,15.0,36,0.00,,,0.00,353.000000,,2013-05-26 21:12:00,
2013-05-26 21:33:00,65.0,37.0,-100.00,ESE,120,7.0,15.0,36,0.00,,,0.00,353.000000,,2013-05-26 21:33:00,
2013-05-26 21:43:00,65.0,37.0,-100.00,ESE,120,7.0,15.0,36,0.00,,,0.00,353.000000,,2013-05-26 21:43:00,
2013-05-26 21:53:00,65.0,37.0,-100.00,ESE,120,7.0,15.0,36,0.00,,,0.00,353.000000,,2013-05-26 21:53:00,
2013-05-26 22:03:00,65.0,37.0,-100.00,ESE,120,7.0,15.0,36,0.00,,,0.00,353.000000,,2013-05-26 22:03:00,
2013-05-26 22:12:00,63.0,37.0,-100.00,ESE,106,6.0,12.0,38,0.00,,,0.00,144.000000,,2013-05-26 22:12:00,
2013-05-26 22:33:00,63.0,37.0,-100.00,ESE,106,6.0,12.0,38,0.00,,,0.00,144.000000,,2013-05-26 22:33:00,
2013-05-26 22:42:00,63.0,37.0,-100.00,ESE,106,6.0,12.0,38,0.00,,,0.00,144.000000,,2013-05-26 22:42:00,
2013-05-26 22:53:00,63.0,37.0,-100.00,ESE,106,6.0,12.0,38,0.00,,,0.00,144.000000,,2013-05-26 22:53:00,
2013-05-26 23:02:00,63.0,37.0,-100.00,ESE,106,6.0,12.0,38,0.00,,,0.00,144.000000,,2013-05-26 23:02:00,
2013-05-26 23:32:00,62.0,37.0,-100.00,ESE,115,6.0,12.0,40,0.00,,,-99.99,73.000000,,2013-05-26 23:32:00,
2013-05-26 23:43:00,62.0,37.0,-100.00,ESE,115,6.0,12.0,40,0.00,,,-99.99,73.000000,,2013-05-26 23:43:00,
2013-05-26 23:52:00,62.0,37.0,-100.00,ESE,115,6.0,12.0,40,0.00,,,-99.99,73.000000,,2013-05-26 23:52:00,